In Rescue
 
Wind Gusting 00 knots
07
April 24, 2019 2:28 AM EDT
Weather Information
Wind Direction
  320 °
Wind Speed
  07 kt (8 mph)
Wind Gust
  00 kt (0 mph)
Altimeter
30.00 in
Visibility
10 SM
Temperature
06° C
43° F
Dewpoint
02° C
36° F
Humidity
76%
1hr Rain Fall
00.00 in.
24hr Rain Fall
00.01 in.
Sky Condition
Broken @ 2,300 ft
MVFR

METAR KD95 240628Z AUTO 32007KT 10SM BKN023 06/02 A3000 RMK AO2 T00550020

FAA Disclaimer: The data displayed is for advisory purposes only and is not to be used for flight planning or operations.